Aviation Digital Data Service (ADDS)

Output produced by METARs form (1733 UTC 30 June 2016)
found at http://www.aviationweather.gov/adds/metars/
 
KLNS 301653Z 23003KT 10SM FEW048 26/14 A3005 RMK AO2 SLP172 T02560144
KLNS 301553Z 22005KT 10SM SCT042 BKN070 24/15 A3006 RMK AO2 SLP178 T02440150
KLNS 301453Z 00000KT 10SM SCT065 24/16 A3007 RMK AO2 SLP179 T02440156 52005
KLNS 301437Z 15003KT 10SM CLR 24/15 A3007 RMK AO2 T02390150
KLNS 301353Z 00000KT 10SM CLR 23/15 A3006 RMK AO2 SLP176 T02280150
KLNS 301253Z 00000KT 10SM CLR 21/14 A3006 RMK AO2 SLP177 T02110144
KLNS 301153Z 26004KT 10SM CLR 19/14 A3005 RMK AO2 SLP173 T01890144 10189 20144 51009
KLNS 301053Z 32003KT 10SM CLR 17/14 A3004 RMK AO2 SLP172 T01670144
KLNS 300953Z 00000KT 10SM CLR 15/13 A3004 RMK AO2 SLP169 T01500133
KLNS 300853Z AUTO 28003KT 10SM CLR 16/13 A3002 RMK AO2 SLP165 T01610133 50002
KLNS 300753Z AUTO 26005KT 10SM CLR 16/14 A3003 RMK AO2 SLP166 T01610139
KLNS 300653Z AUTO 27006KT 10SM CLR 17/14 A3003 RMK AO2 SLP165 T01670139
KLNS 300553Z AUTO 29006KT 10SM CLR 17/14 A3002 RMK AO2 SLP163 T01670139 10233 20167 53006
KLNS 300453Z AUTO 29006KT 10SM CLR 17/14 A3000 RMK AO2 SLP158 T01720139 402560167
KLNS 300353Z AUTO 29005KT 10SM CLR 18/14 A3001 RMK AO2 SLP159 T01780139
KLNS 300253Z AUTO 27005KT 10SM CLR 19/14 A3000 RMK AO2 SLP156 T01940139 53015
KLNS 300153Z 31006KT 10SM CLR 20/14 A2998 RMK AO2 SLP151 T02000139
KLNS 300053Z 29005KT 10SM CLR 21/14 A2996 RMK AO2 SLP144 T02110139
KLNS 292353Z 29009KT 10SM CLR 23/14 A2995 RMK AO2 SLP141 T02330139 10256 20233 53005
KLNS 292253Z 28012KT 10SM SCT065 24/14 A2994 RMK AO2 SLP137 T02440139
KLNS 292153Z 32010KT 10SM CLR 24/14 A2994 RMK AO2 SLP135 T02440144
KLNS 292053Z 33013G17KT 10SM CLR 25/13 A2994 RMK AO2 SLP136 T02500133 50001
KLNS 291953Z 29006KT 10SM CLR 25/14 A2994 RMK AO2 SLP136 T02500144
KLNS 291853Z 29011KT 10SM SCT050 26/14 A2994 RMK AO2 SLP135 T02560144
KLNS 291753Z 29012G17KT 10SM CLR 25/14 A2994 RMK AO2 SLP135 T02500144 10250 20206 56005
KLNS 291653Z 30011KT 10SM CLR 24/14 A2994 RMK AO2 SLP135 T02440144
KLNS 291553Z 30008KT 10SM BKN040 24/16 A2994 RMK AO2 SLP135 T02440156
KLNS 291453Z 29006KT 10SM FEW029 SCT035 BKN043 22/16 A2995 RMK AO2 SLP139 T02220156 51004
KLNS 291353Z 33011KT 10SM SCT030 22/16 A2995 RMK AO2 SLP139 T02220156
KLNS 291253Z 32010KT 10SM CLR 22/16 A2994 RMK AO2 SLP137 T02170156
KLNS 291153Z 31005KT 10SM CLR 21/17 A2994 RMK AO2 SLP135 70010 T02060172 10206 20167 51015
KLNS 291053Z 29005KT 6SM BR SCT070 18/17 A2993 RMK AO2 SLP133 T01830172
KLNS 290953Z AUTO 27005KT 3SM BR CLR 17/16 A2991 RMK AO2 SLP127 T01670161
KLNS 290853Z AUTO 30005KT 4SM BR BKN100 17/17 A2989 RMK AO2 SLP120 T01720167 50003
KLNS 290831Z AUTO 28004KT 3SM BR SCT100 17/17 A2989 RMK AO2 T01720172
KLNS 290817Z AUTO 27003KT 2SM BR CLR 18/17 A2989 RMK AO2 T01780172
KLNS 290753Z AUTO 00000KT 5SM BR CLR 18/17 A2989 RMK AO2 SLP119 T01830172
KLNS 290653Z AUTO 00000KT 5SM BR CLR 18/18 A2989 RMK AO2 SLP117 T01830178
KLNS 290606Z AUTO 22003KT 4SM BR CLR 19/18 A2989 RMK AO2 T01890183
KLNS 290553Z AUTO 00000KT 2SM BR CLR 19/19 A2988 RMK AO2 SLP117 60001 T01890189 10222 20189 58003